createdAt,value
2018-11-05T00:00:03.189Z,100682.07
2018-11-05T00:02:31.360Z,100678.01
2018-11-05T00:04:59.516Z,100672.86
2018-11-05T00:07:27.671Z,100670.73
2018-11-05T00:09:55.831Z,100673.95
2018-11-05T00:12:24.010Z,100675.63
2018-11-05T00:14:52.151Z,100673.95
2018-11-05T00:17:20.295Z,100679.81
2018-11-05T00:19:48.458Z,100673.45
2018-11-05T00:22:16.730Z,100674.05
2018-11-05T00:24:44.900Z,100659.20
2018-11-05T00:27:13.035Z,100657.16
2018-11-05T00:29:41.221Z,100657.52
2018-11-05T00:32:09.372Z,100649.03
2018-11-05T00:34:37.532Z,100643.18
2018-11-05T00:37:06.400Z,100643.06
2018-11-05T00:39:34.519Z,100632.06
2018-11-05T00:42:02.682Z,100629.78
2018-11-05T00:44:30.843Z,100632.42
2018-11-05T00:46:59.023Z,100630.74
2018-11-05T00:49:27.174Z,100626.43
2018-11-05T00:51:55.305Z,100628.11
2018-11-05T00:54:23.487Z,100625.95
2018-11-05T00:56:51.731Z,100620.94
2018-11-05T00:59:19.896Z,100619.51
2018-11-05T01:01:48.052Z,100615.44
2018-11-05T01:04:16.216Z,100615.30
2018-11-05T01:06:44.396Z,100618.77
2018-11-05T01:09:12.536Z,100612.66
2018-11-05T01:11:40.701Z,100611.82
2018-11-05T01:14:09.318Z,100615.77
2018-11-05T01:16:37.483Z,100608.59
2018-11-05T01:19:05.992Z,100606.69
2018-11-05T01:21:34.239Z,100607.05
2018-11-05T01:24:02.536Z,100609.93
2018-11-05T01:26:30.782Z,100601.55
2018-11-05T01:28:58.971Z,100601.32
2018-11-05T01:31:27.346Z,100595.82
2018-11-05T01:33:55.639Z,100602.73
2018-11-05T01:36:23.787Z,100602.25
2018-11-05T01:38:52.062Z,100604.77
2018-11-05T01:41:20.212Z,100606.81
2018-11-05T01:43:48.506Z,100602.27
2018-11-05T01:46:16.704Z,100600.36
2018-11-05T01:48:44.864Z,100599.65
2018-11-05T01:51:13.024Z,100593.63
2018-11-05T01:53:41.170Z,100581.06
2018-11-05T01:56:09.431Z,100581.31
2018-11-05T01:58:37.600Z,100573.53
2018-11-05T02:01:05.799Z,100573.29
2018-11-05T02:03:33.961Z,100564.42
2018-11-05T02:06:02.123Z,100565.12
2018-11-05T02:08:30.270Z,100560.33
2018-11-05T02:10:58.498Z,100562.48
2018-11-05T02:13:26.757Z,100562.48
2018-11-05T02:15:54.825Z,100561.16
2018-11-05T02:18:22.967Z,100551.58
2018-11-05T02:20:51.182Z,100555.53
2018-11-05T02:23:19.371Z,100558.17
2018-11-05T02:25:47.535Z,100557.33
2018-11-05T02:28:15.703Z,100557.48
2018-11-05T02:30:43.884Z,100562.51
2018-11-05T02:33:12.035Z,100560.83
2018-11-05T02:35:40.194Z,100562.27
2018-11-05T02:38:08.360Z,100557.72
2018-11-05T02:40:36.512Z,100557.72
2018-11-05T02:43:04.703Z,100557.72
2018-11-05T02:45:33.363Z,100553.41
2018-11-05T02:48:01.516Z,100558.44
2018-11-05T02:50:29.703Z,100549.22
2018-11-05T02:52:57.951Z,100555.20
2018-11-05T02:55:26.116Z,100552.90
2018-11-05T02:57:54.259Z,100541.41
2018-11-05T03:00:22.422Z,100543.08
2018-11-05T03:02:50.582Z,100538.53
2018-11-05T03:05:19.773Z,100546.43
2018-11-05T03:07:48.803Z,100545.11
2018-11-05T03:10:17.142Z,100537.69
2018-11-05T03:12:46.334Z,100538.53
2018-11-05T03:15:16.575Z,100538.89
2018-11-05T03:17:44.756Z,100532.78
2018-11-05T03:20:13.833Z,100535.41
2018-11-05T03:22:42.420Z,100531.94
2018-11-05T03:25:10.574Z,100530.98
2018-11-05T03:27:39.072Z,100538.41
2018-11-05T03:30:10.118Z,100536.73
2018-11-05T03:32:38.287Z,100531.82
2018-11-05T03:35:07.284Z,100530.14
2018-11-05T03:37:35.488Z,100537.21
2018-11-05T03:40:03.657Z,100530.98
2018-11-05T03:42:31.819Z,100530.98
2018-11-05T03:44:59.955Z,100517.33
2018-11-05T03:47:28.127Z,100517.33
2018-11-05T03:49:56.308Z,100523.80
2018-11-05T03:52:24.467Z,100523.67
2018-11-05T03:54:52.625Z,100516.97
2018-11-05T03:57:20.825Z,100526.91
2018-11-05T03:59:49.018Z,100520.67
2018-11-05T04:02:17.200Z,100521.36
2018-11-05T04:04:45.420Z,100525.67
2018-11-05T04:07:13.595Z,100520.41
2018-11-05T04:09:41.734Z,100511.89
2018-11-05T04:12:09.924Z,100511.66
2018-11-05T04:14:38.112Z,100514.64
2018-11-05T04:17:07.112Z,100509.73
2018-11-05T04:19:35.297Z,100510.48
2018-11-05T04:22:03.449Z,100508.20
2018-11-05T04:24:31.629Z,100512.52
2018-11-05T04:26:59.806Z,100519.94
2018-11-05T04:29:27.967Z,100522.94
2018-11-05T04:31:56.132Z,100514.55
2018-11-05T04:34:24.335Z,100518.50
2018-11-05T04:36:59.282Z,100516.19
2018-11-05T04:39:27.469Z,100522.17
2018-11-05T04:41:55.687Z,100521.09
2018-11-05T04:44:23.850Z,100513.55
2018-11-05T04:46:52.014Z,100513.78
2018-11-05T04:49:20.189Z,100515.81
2018-11-05T04:51:48.343Z,100513.17
2018-11-05T04:54:16.495Z,100513.05
2018-11-05T04:56:44.645Z,100499.99
2018-11-05T04:59:12.807Z,100498.55
2018-11-05T05:01:40.989Z,100501.06
2018-11-05T05:04:09.176Z,100494.83
2018-11-05T05:06:37.363Z,100495.03
2018-11-05T05:09:08.588Z,100490.95
2018-11-05T05:11:36.795Z,100483.76
2018-11-05T05:14:05.647Z,100480.28
2018-11-05T05:16:33.820Z,100481.83
2018-11-05T05:19:01.983Z,100480.87
2018-11-05T05:21:30.174Z,100481.94
2018-11-05T05:23:58.352Z,100473.06
2018-11-05T05:26:26.731Z,100477.73
2018-11-05T05:28:54.892Z,100479.38
2018-11-05T05:31:23.171Z,100468.34
2018-11-05T05:33:51.360Z,100465.23
2018-11-05T05:36:19.520Z,100468.22
2018-11-05T05:38:47.672Z,100461.98
2018-11-05T05:41:15.904Z,100460.05
2018-11-05T05:43:44.044Z,100461.25
2018-11-05T05:46:12.230Z,100466.40
2018-11-05T05:48:40.440Z,100473.83
2018-11-05T05:51:08.599Z,100482.33
2018-11-05T05:53:36.804Z,100494.20
2018-11-05T05:56:05.068Z,100494.55
2018-11-05T05:58:33.222Z,100492.27
2018-11-05T06:01:01.408Z,100501.22
2018-11-05T06:03:29.546Z,100504.22
2018-11-05T06:05:57.742Z,100502.77
2018-11-05T06:08:25.907Z,100508.77
2018-11-05T06:10:54.055Z,100500.36
2018-11-05T06:13:22.215Z,100497.59
2018-11-05T06:15:50.476Z,100496.51
2018-11-05T06:18:18.569Z,100492.91
2018-11-05T06:20:46.698Z,100493.27
2018-11-05T06:23:14.863Z,100497.58
2018-11-05T06:25:43.011Z,100497.41
2018-11-05T06:28:11.178Z,100493.69
2018-11-05T06:30:39.350Z,100498.48
2018-11-05T06:33:07.555Z,100498.36
2018-11-05T06:35:35.715Z,100505.31
2018-11-05T06:38:03.871Z,100509.49
2018-11-05T06:40:32.041Z,100502.41
2018-11-05T06:43:00.212Z,100505.41
2018-11-05T06:45:28.457Z,100501.45
2018-11-05T06:47:56.563Z,100506.60
2018-11-05T06:50:25.795Z,100504.31
2018-11-05T06:52:53.965Z,100507.98
2018-11-05T06:55:22.111Z,100507.51
2018-11-05T06:57:50.480Z,100499.34
2018-11-05T07:00:22.791Z,100497.05
2018-11-05T07:02:50.974Z,100498.11
2018-11-05T07:05:19.173Z,100494.51
2018-11-05T07:07:47.346Z,100482.50
2018-11-05T07:10:16.300Z,100488.00
2018-11-05T07:12:44.904Z,100493.16
2018-11-05T07:15:14.178Z,100497.92
2018-11-05T07:17:43.272Z,100498.28
2018-11-05T07:20:13.435Z,100497.80
2018-11-05T07:22:41.699Z,100497.66
2018-11-05T07:25:11.278Z,100494.06
2018-11-05T07:27:39.510Z,100494.77
2018-11-05T07:30:14.520Z,100497.15
2018-11-05T07:32:42.720Z,100500.50
2018-11-05T07:35:12.588Z,100506.48
2018-11-05T07:37:41.049Z,100505.84
2018-11-05T07:40:10.464Z,100507.03
2018-11-05T07:42:38.943Z,100504.27
2018-11-05T07:45:09.002Z,100500.05
2018-11-05T07:47:37.183Z,100494.63
2018-11-05T07:50:07.573Z,100485.48
2018-11-05T07:52:35.676Z,100479.42
2018-11-05T07:55:03.856Z,100475.33
2018-11-05T07:57:32.040Z,100480.00
2018-11-05T08:00:00.200Z,100480.22
2018-11-05T08:02:28.343Z,100489.33
2018-11-05T08:04:56.608Z,100490.17
2018-11-05T08:07:24.767Z,100491.36
2018-11-05T08:09:52.956Z,100487.27
2018-11-05T08:12:21.115Z,100480.53
2018-11-05T08:14:49.279Z,100476.43
2018-11-05T08:17:17.483Z,100476.27
2018-11-05T08:19:45.651Z,100471.20
2018-11-05T08:22:13.816Z,100459.67
2018-11-05T08:24:42.015Z,100464.20
2018-11-05T08:27:10.160Z,100468.38
2018-11-05T08:29:38.431Z,100460.33
2018-11-05T08:32:06.600Z,100455.74
2018-11-05T08:34:34.812Z,100460.92
2018-11-05T08:37:02.966Z,100461.59
2018-11-05T08:39:31.186Z,100465.08
2018-11-05T08:41:59.343Z,100456.66
2018-11-05T08:44:27.539Z,100455.42
2018-11-05T08:46:55.836Z,100452.52
2018-11-05T08:49:23.887Z,100447.09
2018-11-05T08:51:52.113Z,100453.92
2018-11-05T08:54:20.288Z,100447.49
2018-11-05T08:56:48.503Z,100453.00
2018-11-05T08:59:16.665Z,100440.97
2018-11-05T09:01:44.841Z,100442.85
2018-11-05T09:04:13.043Z,100439.59
2018-11-05T09:06:41.260Z,100433.68
2018-11-05T09:09:09.467Z,100440.34
2018-11-05T09:11:38.188Z,100445.00
2018-11-05T09:14:05.907Z,100446.89
2018-11-05T09:16:34.096Z,100444.45
2018-11-05T09:19:02.276Z,100438.90
2018-11-05T09:21:30.424Z,100439.59
2018-11-05T09:23:58.632Z,100435.81
2018-11-05T09:26:26.794Z,100432.41
2018-11-05T09:28:55.056Z,100425.52
2018-11-05T09:31:23.281Z,100424.27
2018-11-05T09:33:51.448Z,100426.12
2018-11-05T09:36:19.622Z,100429.32
2018-11-05T09:38:47.875Z,100422.08
2018-11-05T09:41:16.087Z,100418.81
2018-11-05T09:43:44.239Z,100436.08
2018-11-05T09:46:19.179Z,100428.62
2018-11-05T09:48:47.356Z,100430.65
2018-11-05T09:51:15.524Z,100426.51
2018-11-05T09:53:43.706Z,100429.85
2018-11-05T09:56:11.887Z,100425.39
2018-11-05T09:58:40.053Z,100422.61
2018-11-05T10:01:08.263Z,100429.58
2018-11-05T10:03:41.926Z,100439.53
2018-11-05T10:06:10.013Z,100438.69
2018-11-05T10:08:38.167Z,100441.55
2018-11-05T10:11:06.603Z,100445.52
2018-11-05T10:13:34.794Z,100437.79
2018-11-05T10:16:03.019Z,100424.70
2018-11-05T10:18:31.289Z,100429.84
2018-11-05T10:20:59.436Z,100429.22
2018-11-05T10:23:27.594Z,100426.27
2018-11-05T10:25:55.743Z,100419.02
2018-11-05T10:28:23.927Z,100409.47
2018-11-05T10:30:52.101Z,100416.16
2018-11-05T10:33:20.343Z,100416.19
2018-11-05T10:35:53.933Z,100416.39
2018-11-05T10:38:22.120Z,100406.22
2018-11-05T10:40:50.300Z,100402.94
2018-11-05T10:43:18.491Z,100409.97
2018-11-05T10:45:46.683Z,100399.89
2018-11-05T10:48:14.879Z,100393.81
2018-11-05T10:50:43.074Z,100392.20
2018-11-05T10:53:11.202Z,100387.80
2018-11-05T10:55:39.383Z,100382.70
2018-11-05T10:58:07.817Z,100384.09
2018-11-05T11:00:41.226Z,100383.80
2018-11-05T11:03:21.066Z,100387.83
2018-11-05T11:05:49.234Z,100393.15
2018-11-05T11:08:17.532Z,100390.02
2018-11-05T11:10:45.748Z,100395.80
2018-11-05T11:13:13.976Z,100395.14
2018-11-05T11:15:42.138Z,100392.31
2018-11-05T11:18:10.359Z,100381.43
2018-11-05T11:20:38.535Z,100381.34
2018-11-05T11:23:06.834Z,100385.22
2018-11-05T11:25:35.011Z,100389.70
2018-11-05T11:28:03.337Z,100386.27
2018-11-05T11:30:31.436Z,100379.84
2018-11-05T11:32:59.811Z,100393.44
2018-11-05T11:35:28.011Z,100387.64
2018-11-05T11:37:56.222Z,100380.19
2018-11-05T11:40:24.643Z,100376.21
2018-11-05T11:42:52.914Z,100373.91
2018-11-05T11:45:22.170Z,100360.31
2018-11-05T11:47:50.403Z,100360.66
2018-11-05T11:50:18.893Z,100354.37
2018-11-05T11:52:47.266Z,100343.44
2018-11-05T11:55:17.636Z,100335.83
2018-11-05T11:57:45.971Z,100337.84
2018-11-05T12:00:23.075Z,100339.02
2018-11-05T12:02:51.801Z,100334.70
2018-11-05T12:05:20.111Z,100338.67
2018-11-05T12:07:48.224Z,100343.48
2018-11-05T12:10:18.195Z,100339.02
2018-11-05T12:12:46.699Z,100340.05
2018-11-05T12:15:15.994Z,100329.48
2018-11-05T12:17:44.998Z,100329.70
2018-11-05T12:20:14.531Z,100323.27
2018-11-05T12:22:43.311Z,100326.74
2018-11-05T13:25:08.165Z,100280.20
2018-11-05T13:27:43.430Z,100280.08
2018-11-05T13:30:16.873Z,100272.78
2018-11-05T13:35:41.079Z,100272.20
2018-11-05T13:38:15.007Z,100277.70
2018-11-05T13:40:48.322Z,100267.25
2018-11-05T13:43:22.124Z,100275.08
2018-11-05T13:46:01.542Z,100276.78
2018-11-05T13:48:35.207Z,100274.66
2018-11-05T13:51:08.433Z,100280.61
2018-11-05T13:53:42.159Z,100277.47
2018-11-05T13:56:16.174Z,100269.66
2018-11-05T13:58:55.710Z,100267.20
2018-11-05T14:01:40.668Z,100249.73
2018-11-05T14:04:08.899Z,100245.94
2018-11-05T14:06:42.290Z,100254.70
2018-11-05T14:09:16.233Z,100250.69
2018-11-05T14:17:14.227Z,100250.31
2018-11-05T14:22:26.967Z,100234.67
2018-11-05T14:25:00.858Z,100236.83
2018-11-05T14:27:34.871Z,100229.37
2018-11-05T14:30:08.597Z,100231.34
2018-11-05T14:32:41.936Z,100228.50
2018-11-05T14:37:49.515Z,100227.81
2018-11-05T14:40:28.631Z,100231.95
2018-11-05T14:42:57.411Z,100228.27
2018-11-05T14:48:05.171Z,100230.42
2018-11-05T14:50:44.467Z,100230.23
2018-11-05T14:53:13.454Z,100237.02
2018-11-05T14:55:52.995Z,100242.47
2018-11-05T14:58:26.439Z,100241.94
2018-11-05T15:00:55.274Z,100249.20
2018-11-05T15:03:34.294Z,100242.91
2018-11-05T15:06:13.422Z,100248.70
2018-11-05T15:08:41.613Z,100248.02
2018-11-05T15:11:09.852Z,100253.32
2018-11-05T15:13:38.079Z,100257.30
2018-11-05T15:16:06.955Z,100261.27
2018-11-05T15:18:35.351Z,100266.58
2018-11-05T15:21:04.111Z,100263.92
2018-11-05T15:23:32.291Z,100265.89
2018-11-05T15:26:00.508Z,100259.75
2018-11-05T15:28:29.016Z,100260.05
2018-11-05T15:30:57.239Z,100256.03
2018-11-05T15:33:25.478Z,100256.52
2018-11-05T15:35:53.602Z,100263.09
2018-11-05T15:38:22.411Z,100258.73
2018-11-05T15:40:50.624Z,100269.31
2018-11-05T15:43:18.835Z,100271.91
2018-11-05T15:45:47.016Z,100266.42
2018-11-05T15:48:15.153Z,100273.05
2018-11-05T15:50:43.600Z,100262.45
2018-11-05T15:53:12.141Z,100260.63
2018-11-05T15:55:40.172Z,100258.33
2018-11-05T15:58:08.330Z,100261.13
2018-11-05T16:00:36.583Z,100262.94
2018-11-05T16:03:04.787Z,100255.97
2018-11-05T16:05:33.106Z,100254.45
2018-11-05T16:08:01.300Z,100262.41
2018-11-05T16:10:29.587Z,100261.08
2018-11-05T16:12:57.824Z,100258.58
2018-11-05T16:15:26.026Z,100257.55
2018-11-05T16:17:54.234Z,100262.98
2018-11-05T16:20:23.187Z,100263.63
2018-11-05T16:22:52.063Z,100265.44
2018-11-05T16:25:20.259Z,100269.56
2018-11-05T16:27:48.503Z,100271.86
2018-11-05T16:30:19.005Z,100269.22
2018-11-05T16:32:47.839Z,100259.45
2018-11-05T16:35:16.138Z,100255.78
2018-11-05T16:37:44.398Z,100265.05
2018-11-05T16:40:14.180Z,100263.38
2018-11-05T16:42:42.896Z,100263.03
2018-11-05T16:45:11.634Z,100276.27
2018-11-05T16:47:40.453Z,100277.58
2018-11-05T16:50:11.892Z,100277.37
2018-11-05T16:52:40.106Z,100279.00
2018-11-05T16:55:10.087Z,100275.11
2018-11-05T16:57:38.455Z,100283.34
2018-11-05T17:00:07.315Z,100278.86
2018-11-05T17:02:35.801Z,100285.63
2018-11-05T17:05:03.850Z,100290.08
2018-11-05T17:07:32.022Z,100286.60
2018-11-05T17:10:00.256Z,100291.41
2018-11-05T17:12:28.540Z,100288.56
2018-11-05T17:14:56.698Z,100283.27
2018-11-05T17:17:24.928Z,100275.27
2018-11-05T17:19:53.173Z,100278.55
2018-11-05T17:22:21.371Z,100269.26
2018-11-05T17:24:49.562Z,100267.39
2018-11-05T17:27:17.790Z,100268.86
2018-11-05T17:29:46.020Z,100267.82
2018-11-05T17:32:14.307Z,100264.14
2018-11-05T17:34:42.479Z,100260.48
2018-11-05T17:37:10.719Z,100266.06
2018-11-05T17:39:38.918Z,100274.98
2018-11-05T17:42:07.280Z,100267.67
2018-11-05T17:44:35.467Z,100265.31
2018-11-05T17:47:03.729Z,100265.80
2018-11-05T17:49:32.014Z,100263.98
2018-11-05T17:52:00.202Z,100255.56
2018-11-05T17:54:28.383Z,100259.53
2018-11-05T17:57:00.977Z,100259.67
2018-11-05T17:59:29.166Z,100264.97
2018-11-05T18:01:57.386Z,100262.95
2018-11-05T18:04:25.693Z,100256.69
2018-11-05T18:06:53.869Z,100262.95
2018-11-05T18:09:23.165Z,100263.93
2018-11-05T18:11:51.207Z,100261.45
2018-11-05T18:14:19.490Z,100260.14
2018-11-05T18:16:47.793Z,100269.39
2018-11-05T18:19:16.007Z,100268.56
2018-11-05T18:21:44.246Z,100263.89
2018-11-05T18:24:12.555Z,100263.27
2018-11-05T18:26:40.751Z,100253.66
2018-11-05T18:29:08.996Z,100252.34
2018-11-05T18:31:37.208Z,100256.17
2018-11-05T18:34:05.731Z,100254.36
2018-11-05T18:36:33.956Z,100247.57
2018-11-05T18:39:02.391Z,100249.87
2018-11-05T18:41:30.652Z,100253.03
2018-11-05T18:43:58.859Z,100257.98
2018-11-05T18:46:27.151Z,100257.48
2018-11-05T18:48:55.352Z,100252.69
2018-11-05T18:51:23.571Z,100255.99
2018-11-05T18:53:51.767Z,100252.02
2018-11-05T18:56:19.965Z,100257.31
2018-11-05T18:58:48.106Z,100255.68
2018-11-05T19:01:16.356Z,100255.33
2018-11-05T19:03:44.670Z,100243.77
2018-11-05T19:06:12.852Z,100243.09
2018-11-05T19:08:41.060Z,100246.36
2018-11-05T19:11:09.311Z,100246.64
2018-11-05T19:13:37.510Z,100254.86
2018-11-05T19:16:05.967Z,100258.48
2018-11-05T19:18:34.016Z,100263.73
2018-11-05T19:21:02.270Z,100264.86
2018-11-05T19:23:30.551Z,100271.75
2018-11-05T19:33:28.869Z,100273.49
2018-11-05T19:35:57.030Z,100274.87
2018-11-05T19:38:25.147Z,100272.23
2018-11-05T19:40:53.356Z,100278.50
2018-11-05T19:43:21.573Z,100274.73
2018-11-05T19:45:49.715Z,100272.23
2018-11-05T19:48:17.874Z,100267.78
2018-11-05T19:50:46.150Z,100263.33
2018-11-05T19:53:14.364Z,100263.47
2018-11-05T19:55:42.564Z,100263.61
2018-11-05T19:58:10.743Z,100267.23
2018-11-05T20:00:38.971Z,100269.88
2018-11-05T20:03:07.091Z,100254.15
2018-11-05T20:05:35.418Z,100249.35
2018-11-05T20:08:03.479Z,100251.64
2018-11-05T20:10:31.682Z,100252.62
2018-11-05T20:12:59.837Z,100246.02
2018-11-05T20:15:28.042Z,100242.19
2018-11-05T20:17:56.652Z,100241.04
2018-11-05T20:20:25.647Z,100244.52
2018-11-05T20:22:53.948Z,100245.98
2018-11-05T20:25:22.185Z,100245.98
2018-11-05T20:27:50.367Z,100245.28
2018-11-05T20:30:20.678Z,100248.91
2018-11-05T20:32:49.869Z,100248.91
2018-11-05T20:35:17.834Z,100249.18
2018-11-05T20:37:45.999Z,100247.86
2018-11-05T20:40:15.564Z,100267.83
2018-11-05T20:42:44.731Z,100260.38
2018-11-05T20:45:13.206Z,100259.41
2018-11-05T20:47:41.687Z,100263.38
2018-11-05T20:50:10.576Z,100269.01
2018-11-05T20:52:39.257Z,100267.34
2018-11-05T20:55:08.359Z,100263.38
2018-11-05T20:57:36.571Z,100269.63
2018-11-05T21:00:05.595Z,100269.28
2018-11-05T21:02:33.750Z,100255.72
2018-11-05T21:05:01.910Z,100263.30
2018-11-05T21:07:30.070Z,100258.51
2018-11-05T21:09:58.243Z,100275.20
2018-11-05T21:12:26.391Z,100274.36
2018-11-05T21:14:54.535Z,100275.34
2018-11-05T21:17:23.145Z,100280.80
2018-11-05T21:19:51.303Z,100283.78
2018-11-05T21:22:19.594Z,100280.63
2018-11-05T21:24:47.638Z,100272.06
2018-11-05T21:27:15.793Z,100271.09
2018-11-05T21:29:43.948Z,100260.03
2018-11-05T21:32:12.131Z,100257.39
2018-11-05T21:34:40.338Z,100260.87
2018-11-05T21:37:08.441Z,100266.64
2018-11-05T21:39:36.590Z,100274.23
2018-11-05T21:42:04.752Z,100267.97
2018-11-05T21:44:32.911Z,100267.62
2018-11-05T21:47:01.058Z,100260.31
2018-11-05T21:49:29.219Z,100261.15
2018-11-05T21:51:57.574Z,100259.34
2018-11-05T21:54:25.776Z,100272.55
2018-11-05T21:56:53.883Z,100268.59
2018-11-05T21:59:22.044Z,100260.17
2018-11-05T22:01:50.210Z,100262.33
2018-11-05T22:04:18.370Z,100262.68
2018-11-05T22:06:46.527Z,100258.71
2018-11-05T22:09:14.682Z,100259.55
2018-11-05T22:11:42.842Z,100249.47
2018-11-05T22:14:11.006Z,100248.98
2018-11-05T22:16:39.171Z,100250.44
2018-11-05T22:19:07.403Z,100257.19
2018-11-05T22:21:35.556Z,100256.03
2018-11-05T22:24:03.699Z,100263.27
2018-11-05T22:26:31.867Z,100259.30
2018-11-05T22:29:00.031Z,100248.52
2018-11-05T22:31:28.171Z,100255.27
2018-11-05T22:33:56.388Z,100259.23
2018-11-05T22:36:24.483Z,100262.16
2018-11-05T22:38:52.718Z,100260.48
2018-11-05T22:41:20.884Z,100263.27
2018-11-05T22:43:49.136Z,100252.48
2018-11-05T22:46:17.268Z,100244.73
2018-11-05T22:48:45.445Z,100245.81
2018-11-05T22:51:13.611Z,100249.56
2018-11-05T22:53:41.760Z,100262.08
2018-11-05T22:56:09.936Z,100262.84
2018-11-05T22:58:38.095Z,100268.39
2018-11-05T23:01:07.571Z,100262.58
2018-11-05T23:03:35.793Z,100258.41
2018-11-05T23:06:03.976Z,100257.71
2018-11-05T23:08:32.139Z,100258.82
2018-11-05T23:11:00.345Z,100260.91
2018-11-05T23:13:28.510Z,100267.33
2018-11-05T23:15:56.671Z,100263.28
2018-11-05T23:18:24.895Z,100272.66
2018-11-05T23:20:53.036Z,100268.27
2018-11-05T23:23:21.186Z,100272.16
2018-11-05T23:25:49.339Z,100275.45
2018-11-05T23:28:17.522Z,100276.06
2018-11-05T23:30:45.695Z,100274.75
2018-11-05T23:33:13.866Z,100273.29
2018-11-05T23:35:42.016Z,100275.80
2018-11-05T23:38:10.158Z,100282.88
2018-11-05T23:40:38.315Z,100285.31
2018-11-05T23:43:06.479Z,100291.91
2018-11-05T23:45:34.635Z,100293.23
2018-11-05T23:48:02.795Z,100290.23
2018-11-05T23:50:30.949Z,100281.34
2018-11-05T23:52:59.087Z,100288.08
2018-11-05T23:55:27.257Z,100288.56
2018-11-05T23:57:55.411Z,100285.22
